Mount Auburn, IL (62547)

12:24 AM CST die 20o February, anno 2017 (GMT -0600)
S. Lanesville | | Change Station
Active Advisory: Dense Fog Advisory

Elev 591 ft 39.85 °N, 89.35 °W | Updated 14 seconds ago

Caligo
Caligo
49.1 °F
Feels Like 49 °F
N
0.0
Ventus Variabilis Ventus from Magis Auster quam Eurus
Gusts 2.0 mph

Hodie
High -- | Low -- °F
--% Chance of Precip.
Yesterday
High -- | Low -- °F
Precip. -- in
Pressio 30.09 in
Visibilitas 0.5 milia passuum
Clouds Aequaliter Nubila 300 ft
Frigus Venti 49 °F
Frigus in quo Ros apparet 48 °F
Umor 94%
Rainfall 0.00 in
Snow Depth Not available.
6:42 AM 5:39 PM
Last Quarter, 37% visible
METAR KTAZ 200615Z AUTO 15010KT 1/2SM FG OVC003 10/10 A3009 RMK AO2 T00970096
Pressio 30.09 in
Visibilitas 0.5 milia passuum
Clouds Aequaliter Nubila 300 ft
Frigus Venti 49 °F
Frigus in quo Ros apparet 48 °F
Umor 94%
Rainfall 0.00 in
Snow Depth Not available.
6:42 AM 5:39 PM
Last Quarter, 37% visible
METAR KTAZ 200615Z AUTO 15010KT 1/2SM FG OVC003 10/10 A3009 RMK AO2 T00970096

Get Your Daily Forecast Email!

Thanks for signing up!

Be on the lookout for a verification email in your inbox.

You'll start receiving the daily forecast at 8 AM.

×

10-Day Weather Forecast

Almanac

Astronomy

Feb. 20, 2017 Rise Set
Actual Time
Civil Twilight
Nautical Twilight
Astronomical Twilight
Moon
Length Of Visible Light
Length of Day
Tomorrow will be .
, % of the Moon is Illuminated

Today's Extremes

State Highs State Lows

Community

WunderPhotos

Upload Photos

1,962,540 photos uploaded!

WunderBlog® & News

Nearby

Air Quality

  Air Quality AQ Index Pollutant
Not available.

Snow Depth

Station Depth Elevation

Earthquake Activity

City Distance Mag. Time & Date
Minimum magnitude displayed is 2.5.

Coastal Water Temperatures

Locus Calor

Stations

Nearby Weather Stations

Station Location Temp Frigus Venti Frigus in quo Ros apparet Umor Ventus Precip. Elev Renovata Type
                   

Watches & Warnings

Dense Fog Advisory
Issued: 10:08 PM CST Feb. 19, 2017 – National Weather Service

... Dense fog advisory in effect until 10 am CST Monday...

The National Weather Service in Lincoln has issued a dense fog
advisory... which is in effect until 10 am CST Monday.

* Visibility... one quarter mile or less at times.

* Impacts... areas of low visibility and rapid changes in
visibility will cause hazardous driving conditions.

Precautionary/preparedness actions...

A dense fog advisory means visibilities will frequently be
reduced to less than one quarter mile. If driving... slow down...
use your headlights... and leave plenty of distance ahead of you.



Smith